»·PEaware :: N326MC KBFI-KSFO

N326MC :: KBFI-KSFO

FLIGHT INFORMATION

Flight Status: Arrived
Operator: Privately registered:
United States
More flights under this callsign
Pilot: Anonymous 5456 (5456)
Aircraft: BOEING 737-200
(B732)
More flights by this aircraft type
Origin: KBFI Boeing Field/King Co Intl
United States
Destination: KSFO San Francisco Intl
United States
More flights between these airports :: More routes between these airports
Route: +KENT8 BTG J1 OED J501 PYE GOLDN7
File this flight plan on PilotEdge
Remarks:
Altitude:
(Current/Filed)
32,000ft
Speed:
(Current/Filed)
450kts
Departed: 12-Jan-18 01:18 PM
Arrived: 12-Jan-18 03:04 PM
Distance/Time
Traveled:
594nm/1:46
Distance/Time
To Go:
Arrived

Flight Plot

Page will automatically refresh every two minutes.

Flight plan parsing failed; only flown route is shown


Map Options




Map Legend


Flown Route
Filed Route
Departure Airport
Arrival Airport
Navaid (VOR, NDB)
Fix

Horizontal Profiles

Position Reports

Time Latitude Longitude Heading Altitude Ground
Speed
12-Jan-18 12:48 47.526763 -122.296553 325 29ft 0kts
12-Jan-18 12:49 47.526763 -122.296553 325 29ft 0kts
12-Jan-18 12:50 47.526763 -122.296553 325 29ft 0kts
12-Jan-18 12:51 47.526763 -122.296553 325 29ft 0kts
12-Jan-18 12:52 47.526763 -122.296553 325 29ft 0kts
12-Jan-18 12:53 47.526763 -122.296553 325 29ft 0kts
12-Jan-18 12:54 47.526763 -122.296553 325 29ft 0kts
12-Jan-18 12:55 47.526763 -122.296553 325 29ft 0kts
12-Jan-18 12:56 47.526763 -122.296553 325 29ft 0kts
12-Jan-18 12:57 47.526763 -122.296553 325 29ft 0kts
12-Jan-18 12:58 47.526763 -122.296553 325 29ft 0kts
12-Jan-18 12:59 47.526763 -122.296553 325 29ft 0kts
12-Jan-18 13:00 47.526763 -122.296553 325 29ft 0kts
12-Jan-18 13:01 47.526763 -122.296553 325 29ft 0kts
12-Jan-18 13:02 47.526763 -122.296553 325 29ft 0kts
12-Jan-18 13:03 47.526763 -122.296553 325 29ft 0kts
12-Jan-18 13:04 47.526763 -122.296553 325 29ft 0kts
12-Jan-18 13:05 47.526763 -122.296553 325 29ft 0kts
12-Jan-18 13:06 47.526763 -122.296553 325 29ft 0kts
12-Jan-18 13:07 47.526763 -122.296553 325 29ft 0kts
12-Jan-18 13:08 47.526763 -122.296553 325 29ft 0kts
12-Jan-18 13:09 47.526763 -122.296553 325 29ft 0kts
12-Jan-18 13:10 47.526763 -122.296553 325 29ft 0kts
12-Jan-18 13:11 47.526763 -122.296553 325 29ft 0kts
12-Jan-18 13:12 47.526763 -122.296553 325 29ft 0kts
12-Jan-18 13:13 47.526764 -122.296554 325 29ft 0kts
12-Jan-18 13:14 47.526764 -122.296554 325 29ft 0kts
12-Jan-18 13:15 47.526764 -122.296554 325 29ft 0kts
12-Jan-18 13:16 47.526764 -122.296554 325 29ft 0kts
12-Jan-18 13:17 47.526764 -122.296554 325 29ft 0kts
12-Jan-18 13:18 47.526764 -122.296554 325 29ft 0kts
12-Jan-18 13:19 47.527045 -122.297271 273 29ft 7kts
12-Jan-18 13:20 47.529971 -122.299400 330 29ft 16kts
12-Jan-18 13:21 47.534401 -122.303187 329 29ft 20kts
12-Jan-18 13:22 47.539013 -122.307366 329 29ft 16kts
12-Jan-18 13:23 47.540724 -122.310611 238 29ft 9kts
12-Jan-18 13:24 47.533592 -122.305474 151 29ft 111kts
12-Jan-18 13:25 47.498525 -122.272540 149 2032ft 183kts
12-Jan-18 13:26 47.440887 -122.219919 150 1886ft 268kts
12-Jan-18 13:27 47.389473 -122.179685 178 3573ft 174kts
12-Jan-18 13:28 47.343746 -122.198010 199 4930ft 189kts
12-Jan-18 13:29 47.295689 -122.219494 198 7060ft 208kts
12-Jan-18 13:30 47.239847 -122.229042 184 9405ft 217kts
12-Jan-18 13:31 47.183929 -122.242513 192 11621ft 215kts
12-Jan-18 13:32 47.125744 -122.257095 193 13142ft 243kts
12-Jan-18 13:33 47.058515 -122.273983 194 14766ft 262kts
12-Jan-18 13:34 46.992132 -122.290120 197 17132ft 242kts
12-Jan-18 13:35 46.927976 -122.305985 199 18867ft 238kts
12-Jan-18 13:36 46.874005 -122.319591 199 19346ft 273kts
12-Jan-18 13:37 46.809449 -122.335627 197 19448ft 320kts
12-Jan-18 13:38 46.727662 -122.355550 197 20314ft 337kts
12-Jan-18 13:39 46.639109 -122.377180 197 21450ft 345kts
12-Jan-18 13:40 46.553413 -122.398091 197 22437ft 351kts
12-Jan-18 13:41 46.462112 -122.420305 198 23381ft 357kts
12-Jan-18 13:42 46.367400 -122.443274 198 24250ft 363kts
12-Jan-18 13:43 46.271617 -122.466412 198 25056ft 368kts
12-Jan-18 13:44 46.174059 -122.489953 197 25461ft 383kts
12-Jan-18 13:45 46.070927 -122.514702 197 25491ft 404kts
12-Jan-18 13:46 45.970090 -122.538742 197 25907ft 409kts
12-Jan-18 13:47 45.875599 -122.561230 197 26299ft 412kts
12-Jan-18 13:48 45.770076 -122.586258 197 26691ft 415kts
12-Jan-18 13:49 45.665005 -122.599846 192 27039ft 426kts
12-Jan-18 13:50 45.553172 -122.611698 192 28199ft 433kts
12-Jan-18 13:51 45.438344 -122.623565 192 29266ft 441kts
12-Jan-18 13:52 45.320011 -122.635733 191 29952ft 455kts
12-Jan-18 13:53 45.197576 -122.648232 192 30801ft 462kts
12-Jan-18 13:54 45.076228 -122.660619 190 31517ft 470kts
12-Jan-18 13:55 44.956505 -122.672794 189 32159ft 477kts
12-Jan-18 13:56 44.834540 -122.685057 189 32124ft 496kts
12-Jan-18 13:57 44.700922 -122.698458 189 32001ft 506kts
12-Jan-18 13:58 44.566924 -122.711814 189 32040ft 499kts
12-Jan-18 13:59 44.442598 -122.724182 189 32185ft 485kts
12-Jan-18 14:00 44.315977 -122.736743 189 32432ft 473kts
12-Jan-18 14:01 44.190613 -122.749136 189 32461ft 470kts
12-Jan-18 14:02 44.065747 -122.761414 189 32462ft 469kts
12-Jan-18 14:03 43.940364 -122.773684 189 32464ft 470kts
12-Jan-18 14:04 43.815974 -122.785810 189 32456ft 469kts
12-Jan-18 14:05 43.688539 -122.798177 189 32457ft 469kts
12-Jan-18 14:06 43.563151 -122.810296 189 32453ft 468kts
12-Jan-18 14:07 43.435969 -122.822536 189 32449ft 468kts
12-Jan-18 14:08 43.308774 -122.834734 189 32452ft 471kts
12-Jan-18 14:09 43.180329 -122.846991 189 32452ft 475kts
12-Jan-18 14:10 43.061282 -122.858273 189 32454ft 478kts
12-Jan-18 14:11 42.992879 -122.864776 189 32456ft 479kts
12-Jan-18 14:12 42.863186 -122.877046 189 32446ft 480kts
12-Jan-18 14:13 42.730491 -122.889510 189 32448ft 479kts
12-Jan-18 14:14 42.597683 -122.902003 190 32445ft 478kts
12-Jan-18 14:15 42.467351 -122.925990 177 32392ft 487kts
12-Jan-18 14:16 42.334363 -122.912259 184 32402ft 483kts
12-Jan-18 14:17 42.222602 -122.910242 184 32345ft 483kts
12-Jan-18 14:18 42.066810 -122.908444 184 32452ft 481kts
12-Jan-18 14:19 41.933431 -122.906992 184 32452ft 482kts
12-Jan-18 14:20 41.827684 -122.905866 184 32446ft 482kts
12-Jan-18 14:21 41.694228 -122.904434 184 32447ft 482kts
12-Jan-18 14:22 41.560732 -122.903011 184 32448ft 482kts
12-Jan-18 14:23 41.426798 -122.901590 184 32449ft 482kts
12-Jan-18 14:24 41.292970 -122.900172 184 32450ft 482kts
12-Jan-18 14:25 41.159175 -122.898766 184 32451ft 483kts
12-Jan-18 14:26 41.025764 -122.897409 184 32432ft 484kts
12-Jan-18 14:27 40.897512 -122.896042 183 32406ft 483kts
12-Jan-18 14:28 40.764072 -122.894633 183 32401ft 482kts
12-Jan-18 14:29 40.630492 -122.893245 183 32401ft 481kts
12-Jan-18 14:30 40.497326 -122.891869 183 32399ft 480kts
12-Jan-18 14:31 40.364877 -122.890513 183 32403ft 479kts
12-Jan-18 14:32 40.232326 -122.889157 183 32409ft 479kts
12-Jan-18 14:33 40.099993 -122.887803 183 32414ft 479kts
12-Jan-18 14:34 39.966656 -122.886490 183 31530ft 494kts
12-Jan-18 14:35 39.837144 -122.885149 183 30408ft 490kts
12-Jan-18 14:36 39.703318 -122.883795 183 30396ft 484kts
12-Jan-18 14:37 39.571714 -122.882476 183 30392ft 480kts
12-Jan-18 14:38 39.441190 -122.881171 183 30394ft 477kts
12-Jan-18 14:39 39.309998 -122.880039 183 29563ft 490kts
12-Jan-18 14:40 39.171508 -122.878700 182 27336ft 508kts
12-Jan-18 14:41 39.036150 -122.877173 182 25262ft 500kts
12-Jan-18 14:42 38.900301 -122.875845 181 23330ft 485kts
12-Jan-18 14:43 38.797569 -122.874793 181 21486ft 463kts
12-Jan-18 14:44 38.673515 -122.873576 181 18612ft 435kts
12-Jan-18 14:45 38.556477 -122.872439 181 15834ft 414kts
12-Jan-18 14:46 38.446351 -122.871354 181 13943ft 387kts
12-Jan-18 14:47 38.341002 -122.870344 181 12760ft 374kts
12-Jan-18 14:48 38.239787 -122.869369 181 11594ft 366kts
12-Jan-18 14:49 38.143555 -122.868405 181 10998ft 345kts
12-Jan-18 14:50 38.058014 -122.839125 142 11013ft 328kts
12-Jan-18 14:51 37.987277 -122.767168 138 11022ft 343kts
12-Jan-18 14:52 37.911416 -122.686134 138 11018ft 372kts
12-Jan-18 14:53 37.839227 -122.608655 138 10989ft 388kts
12-Jan-18 14:54 37.757305 -122.520918 139 10979ft 400kts
12-Jan-18 14:55 37.677806 -122.436052 139 10992ft 406kts
12-Jan-18 14:56 37.598449 -122.360201 154 11014ft 405kts
12-Jan-18 14:57 37.510626 -122.307436 155 10234ft 314kts
12-Jan-18 14:58 37.442943 -122.253955 117 8735ft 283kts
12-Jan-18 14:59 37.409711 -122.170537 114 7089ft 265kts
12-Jan-18 15:00 37.384647 -122.093364 79 5355ft 234kts
12-Jan-18 15:01 37.427988 -122.063496 354 3996ft 192kts
12-Jan-18 15:02 37.472530 -122.069350 334 3980ft 159kts
12-Jan-18 15:03 37.508551 -122.105419 301 4004ft 182kts
12-Jan-18 15:04 37.530633 -122.160764 299 3433ft 172kts
12-Jan-18 15:05 37.551277 -122.209152 299 2597ft 144kts
12-Jan-18 15:06 37.567400 -122.247348 299 1952ft 110kts
12-Jan-18 15:07 37.583077 -122.284528 299 1355ft 128kts
12-Jan-18 15:08 37.599424 -122.323472 299 644ft 123kts
12-Jan-18 15:09 37.614819 -122.360145 297 23ft 116kts
12-Jan-18 15:10 37.621840 -122.376193 43 22ft 8kts
12-Jan-18 15:11 37.623218 -122.376556 299 22ft 17kts
12-Jan-18 15:12 37.625622 -122.382256 296 22ft 13kts
12-Jan-18 15:13 37.627195 -122.382689 266 22ft 5kts
12-Jan-18 15:14 37.627165 -122.383323 266 22ft 0kts
12-Jan-18 15:15 37.627165 -122.383323 266 22ft 0kts
12-Jan-18 15:16 37.627165 -122.383323 266 22ft 0kts
12-Jan-18 15:17 37.627165 -122.383323 266 22ft 0kts

Navigation Log

Ident Type
Flight plan parsing failed, navigation log unavailable